Aeroporto :
LOGIN :

Iscrizione | Disclaimer

   EN    FR    IT 

 










Sommario :    VFR   VFR Marginale   IFR   IFR Intensivo   IFR Molto Intensivo
Visibilità : 
Base nubi : 
>= 8 km
>= 3000ft
5 / 8 km
1000 / 3000 ft
1500m / 5 km
500 / 1000 ft
800 / 1500m
200 / 500 ft
< 800m
< 200 ft
Simboli :   Temporali  Nebbia  Neve Forte  Precipitazioni Forti  Vento > 20 kt
SIGMETs :   Varie  Temporali  Ghiacco  Turbolenza  Onda orograficha  Ceneri Vulcaniche






- Altitudine del aeroporto : 796 ft
- Codice IATA : SYT


LFLN - Saint-Yan

ULTIMO METAR :
  • 270830Z AUTO 25004KT 210V300 CAVOK 04/02 Q0994 TEMPO 4000 -SHRA BKN008 SCT010TCU

METARs OBSOLETI :
  • 270800Z AUTO 25006KT 9999 FEW017 BKN022 BKN028 03/01 Q0994 TEMPO 4000 -SHRA BKN008 SCT010TCU
  • 270730Z AUTO 24007KT 200V300 9999 -RA SCT018 BKN023 BKN038 03/02 Q0993 TEMPO 4000 -SHRA BKN008 SCT010TCU
  • 270700Z AUTO 24004KT 9999 SCT025 BKN032 BKN038 03/01 Q0993 TEMPO 4000 -SHRA BKN008 SCT010TCU
  • 270630Z AUTO 23002KT 9999 FEW032 BKN041 03/01 Q0993 TEMPO 4000 -SHRA BKN008 SCT010TCU

TAF TAF LFLN
Valido dal 27 a 06 ore il 27 a 15 ore UTC


270500Z 2706/2715 25010KT 9999 BKN020
PROB40
TEMPO 2706/2715 4000 -SHRA BKN008 SCT010TCU
PROB40
TEMPO 2712/2715 24017G27KT SHRA SCT010CB



MetMap, La meteo Aeronautica in un colpo d'occhio ! - Copyright ORBIFLY Dicembre 2007 - Disclaimer

ORBIFLY MET'MAP TEAM :

Programmazione e sviluppo : Alexandra Zaïnal
Concezione : Baudouin d'Aumeries
Aiuto per la programmazione : Marc-Olivier Méhu
Supporto tecnico e logistico : Manuel Goepfert
Aiuto per la traduzione : Arnaldo La Scala

Contatto : metmap@orbifly.com




FONTI E CREDITI :

   NOAA